Hillsdale, Wyoming
Current Conditions -  °F | °C
As of 9:53 AM on Thursday 23 Oct 2014 (Local Time) from KCYS Reporting Station
Clear Clear  
Wind Chill: 57°   Ceiling: Unl
Heat Index: 57°   Visibility: 10mi
Dew Point: 32°   Wind: 10mph
Humidity: 39%   Direction: 220°SW
Pressure: 30.18"   Gusts: NA
Location:  41.21°N, 104.48°W
Report Text: KCYS 231553Z 22009KT 10SM CLR 14/00 A3018 RMK AO2 SLP171 T01390000
Loading
Personal Weather Stations






























Interactive Weather Map
Tropical Storm Tracking
New forecast layout! Learn more

10-Day Weather Forecast

Advertisements
Track Severe Weather on mobile